Westwego, LA (70096)

8:47 AM CDT on April 26, 2015 (GMT -0500)
Audubon Park-Patton St. | | Change Station
CLOSE
Current Station
Personal Weather Station
Location: New Orleans, LA
Elevation: 23 ft
Nearby Weather Stations
Active Advisory: Special Statement Active Notice: Local Storm Report

Elev 23 ft 29.92 °N, 90.13 °W | Updated 4 minutes ago

Overcast
Overcast
73.6 °F
Feels Like 76 °F
N
0.0
Wind Variable Wind from SSE

Today
High -- | Low -- °F
--% Chance of Precip.
Yesterday
High -- | Low -- °F
Precip. -- in
6:22 AM 7:34 PM
First Quarter, 55% visible
Pressure 29.77 in
Visibility 7.0 miles
Clouds Overcast 700 ft
Heat Index 76 °F
Dew Point 63 °F
Humidity 69%
Rainfall 0.00 in
Snow Depth Not available.
UV 0 out of 12
Pollen 7.10 out of 12
Air Quality Not available.
Flu Activity Sporadic
METAR KNBG 261255Z AUTO 00000KT 7SM OVC007 22/21 A2977 RMK AO2 SLP081 T02220206 PNO $

More Conditions Fewer Conditions

Pressure 29.77 in
Visibility 7.0 miles
Clouds Overcast 700 ft
Heat Index 76 °F
Dew Point 63 °F
Humidity 69%
Rainfall 0.00 in
Snow Depth Not available.
UV 0 out of 12
Pollen 7.10 out of 12
Air Quality Not available.
Flu Activity Sporadic
METAR KNBG 261255Z AUTO 00000KT 7SM OVC007 22/21 A2977 RMK AO2 SLP081 T02220206 PNO $

More Conditions Fewer Conditions

The full scope of the disaster following a powerful 7.8-magnitude earthquake in Nepal may not come into view for days, but global charities are already sending emergency aid. Click to see how you can help.

10-Day Weather Forecast

Almanac

Astronomy

Apr. 26, 2015 Rise Set
Actual Time
Civil Twilight
Nautical Twilight
Astronomical Twilight
Moon
Length of Visible Light
Length of Day
Tomorrow will be .
, % of the Moon is Illuminated

Today's Extremes

State Highs State Lows

Community

WunderPhotos

Upload Photos

1,816,998 photos uploaded!

WunderBlogs® & News

Nearby

Air Quality

  Air Quality AQ Index Pollutant
Not available.

Snow Depth

Station Depth Elevation

Earthquake Activity

City Distance Mag. Time & Date
Minimum magnitude displayed is 2.5.

Coastal Water Temperatures

Place Temperature

Stations

Nearby Weather Stations

Station Location Temp. Windchill Dew Point Humidity Wind Precip. Elev Updated Type
                   
Special Statement
Statement as of 8:21 AM CDT on April 26, 2015

After widespread rain yesterday and light winds this morning
widespread light to moderate fog has developed this morning. In
addition there will be pockets of dense fog and this will likely
continue for another couple of hours. Fog should quickly burn off
between 9 and 10am CDT. Please use extra caution in areas of fog.



821 am CDT sun Apr 26 2015

After widespread rain yesterday and light winds this morning
widespread light to moderate fog has developed this morning. In
addition there will be pockets of dense fog and this will likely
continue for another couple of hours. Fog should quickly burn off
between 9 and 10am CDT. Please use extra caution in areas of fog.